This is the latest recevied weather packets stored in our database for station/object N2RFA-13. If no packets are shown the sender has not sent any weather packets the latest 10 day(s).
| Time | Temp. | Humidity | Pressure | Rain* | Wind** | Luminosity | Snow |
|---|---|---|---|---|---|---|---|
| 1777117546 | - | - | 1016.9 hPa | 0 mm | - | - | - |
| 1777116634 | - | - | 1016.9 hPa | 0 mm | - | - | - |
| 1777111217 | 7.78° C | 80% | 1015.5 hPa | 0 mm | - | - | - |
| 1777109430 | 7.78° C | 80% | 1015.6 hPa | 0 mm | - | - | - |
| 1777108513 | 8.33° C | 80% | 1015.4 hPa | 0 mm | - | - | - |
| 1777107631 | 8.33° C | 80% | 1015.5 hPa | 0 mm | - | - | - |
| 1777106720 | 8.33° C | 79% | 1015.4 hPa | 0 mm | - | - | - |
| 1777104908 | 8.33° C | 78% | 1015.5 hPa | 0 mm | - | - | - |
| 1777099557 | 8.89° C | 71% | 1014.6 hPa | 0 mm | - | - | - |
| 1777098656 | 8.89° C | 71% | 1014.9 hPa | 0 mm | - | - | - |
| 1777095954 | 8.89° C | 68% | 1014.7 hPa | 0 mm | - | - | - |
| 1777087847 | 9.44° C | 76% | 1014.2 hPa | 0 mm | - | - | - |
| 1777086056 | 9.44° C | 76% | 1014.1 hPa | 0 mm | - | - | - |
| 1777079727 | 11.11° C | 64% | 1012.9 hPa | 0 mm | - | - | - |
| 1777071636 | 16.67° C | 41% | 1010.5 hPa | 0 mm | - | - | - |
| 1777069814 | 17.22° C | 41% | 1010.1 hPa | 0 mm | - | - | - |
| 1777062611 | 22.22° C | 27% | 1008.8 hPa | 0 mm | - | - | - |
| 1777055413 | 21.67° C | 25% | 1009.1 hPa | 0 mm | - | - | - |
| 1777052795 | 22.22° C | 29% | 1009.1 hPa | 0 mm | - | - | - |
| 1777050958 | 22.22° C | 28% | 1009.5 hPa | 0 mm | - | - | - |
| 1777047346 | 21.11° C | 35% | 1010.4 hPa | 0 mm | - | - | - |
| 1777046444 | 20.56° C | 36% | 1010.6 hPa | 0 mm | - | - | - |
| 1777044643 | 20° C | 36% | 1010.7 hPa | 0 mm | - | - | - |
| 1777041031 | 17.78° C | 39% | 1010.8 hPa | 0 mm | - | - | - |
| 1777037423 | 17.22° C | 41% | 1010.7 hPa | 0 mm | - | - | - |
* Rain latest hour (hover to see other rain measurements)
** Current wind speed in m/s (hover to see current wind gust speed)